Estación Meteorológica Peña el Pijo (Robertgarden) [ 11/17/17 23:47:11 CET ]

Fecha Hora Presion(HPa) Temp (°C) Humedad % Rocio (°C) Viento ( m/s) Direccion Lluvia 1Hora(mm) Lluvia 24H(mm) LLuvia Total(mm)
2017-Sep-25 01:01:50 1014.400 13.7 62 6.5         1457.65
2017-Sep-25 02:01:58 1014.400 13.9 56 5.3         1457.65
2017-Sep-25 03:02:09 1014.200 12.0 59 4.2         1457.65
2017-Sep-25 04:01:57 1013.800 11.6 61 4.3         1457.65
2017-Sep-25 05:01:55 1013.600 11.9 62 4.8         1457.65
2017-Sep-25 06:01:54 1013.300 10.8 66 4.7         1457.65
2017-Sep-25 07:01:39 1013.600 11.2 67 5.3         1457.65
2017-Sep-25 08:01:47 1013.800 10.6 69 5.2         1457.65
2017-Sep-25 09:01:45 1013.800 11.9 70 6.6         1457.65
2017-Sep-25 10:01:44 1014.000 19.8 57 11.0         1457.65
2017-Sep-25 11:01:40 1013.900 25.4 38 10.0         1457.65
2017-Sep-25 12:01:39 1013.500 28.5 31 9.2         1457.65
2017-Sep-25 13:01:34 1013.100 29.5 28 9.0         1457.65
2017-Sep-25 14:01:54 1012.800 28.9 27 7.8         1457.65
2017-Sep-25 15:01:23 1012.300 29.9 25 7.5         1457.65
2017-Sep-25 16:01:43 1012.100 30.5 23 6.8         1457.65
2017-Sep-25 17:01:28 1011.900 29.9 25 7.5         1457.65
2017-Sep-25 18:01:23 1011.500 28.8 25 6.6         1457.65
2017-Sep-25 19:01:47 1011.800 25.9 28 5.9         1457.65
2017-Sep-25 20:01:48 1011.900 22.6 33 5.4         1457.65
2017-Sep-25 21:01:53 1012.600 17.8 43 5.0         1457.65
2017-Sep-25 22:01:43 1013.000 14.9 51 4.9         1457.65
2017-Sep-25 23:01:46 1013.200 13.6 55 4.7         1457.65

Temperatura Máxima:30°    Temperatura Mínima:10°
Presión Máxima:1014.400 Hpa    Presión Mínima:1011.500 Hpa


Volver